Time;durP1;ratioP1;P1;durP2;ratioP2;P2;SDS_P1;SDS_P2;PMS_P1;PMS_P2;Temp;Humidity;BMP_temperature;BMP_pressure;BME280_temperature;BME280_humidity;BME280_pressure;Samples;Min_cycle;Max_cycle;Signal;HPM_P1;HPM_P2
2022/04/06 00:00:09;;;;;;;1.50;1.05;;;10.50;99.90;;;;;;4878596;29;20037;-80
2022/04/06 00:02:37;;;;;;;0.70;0.70;;;10.50;99.90;;;;;;4878020;29;20025;-81
2022/04/06 00:05:04;;;;;;;1.77;0.82;;;10.50;99.90;;;;;;4894752;29;20048;-80
2022/04/06 00:07:30;;;;;;;1.60;1.20;;;10.50;99.90;;;;;;4908237;29;20021;-80
2022/04/06 00:09:56;;;;;;;1.27;0.80;;;10.50;99.90;;;;;;4887151;29;20047;-80
2022/04/06 00:12:22;;;;;;;2.75;1.20;;;10.60;99.90;;;;;;4887156;29;20052;-81
2022/04/06 00:14:47;;;;;;;1.60;0.93;;;10.60;99.90;;;;;;4886876;29;20381;-81
2022/04/06 00:17:14;;;;;;;1.67;1.00;;;10.60;99.90;;;;;;4887646;29;20499;-81
2022/04/06 00:19:40;;;;;;;0.82;0.70;;;10.60;99.90;;;;;;4887941;29;20032;-81
2022/04/06 00:22:06;;;;;;;2.28;0.88;;;10.60;99.90;;;;;;4889136;29;20080;-82
2022/04/06 00:24:32;;;;;;;1.35;1.00;;;10.70;99.90;;;;;;4888221;29;20108;-83
2022/04/06 00:26:58;;;;;;;1.67;1.05;;;10.70;99.90;;;;;;4887407;29;20505;-82
2022/04/06 00:29:23;;;;;;;1.88;1.08;;;10.70;99.90;;;;;;4888894;29;20061;-82
2022/04/06 00:31:49;;;;;;;1.75;1.00;;;10.60;99.90;;;;;;4889578;29;20029;-82
2022/04/06 00:34:15;;;;;;;1.33;0.90;;;10.60;99.90;;;;;;4887579;29;20343;-83
2022/04/06 00:36:41;;;;;;;1.15;0.80;;;10.70;99.90;;;;;;4891199;29;20088;-82
2022/04/06 00:39:07;;;;;;;3.53;1.05;;;10.70;99.90;;;;;;4891498;29;20051;-82
2022/04/06 00:41:33;;;;;;;1.08;0.90;;;10.70;99.90;;;;;;4890489;29;20029;-81
2022/04/06 00:44:18;;;;;;;1.33;1.10;;;10.70;99.90;;;;;;4894084;29;20045;-80
2022/04/06 00:46:45;;;;;;;0.90;0.90;;;10.70;99.90;;;;;;4898129;29;20044;-81
2022/04/06 00:49:14;;;;;;;1.42;1.17;;;10.70;99.90;;;;;;4896460;29;20081;-81
2022/04/06 00:51:45;;;;;;;1.17;0.93;;;10.70;99.90;;;;;;4898999;29;20044;-79
2022/04/06 00:54:13;;;;;;;1.10;0.90;;;10.70;99.90;;;;;;4893432;29;20043;-82
2022/04/06 00:56:40;;;;;;;1.80;1.00;;;10.70;99.90;;;;;;4894686;29;20028;-80
2022/04/06 00:59:06;;;;;;;1.23;1.13;;;10.70;99.90;;;;;;4897376;29;20052;-80
2022/04/06 01:01:32;;;;;;;1.92;1.05;;;10.80;99.90;;;;;;4897923;29;20025;-81
2022/04/06 01:03:58;;;;;;;1.23;1.10;;;10.80;99.90;;;;;;4889496;29;20040;-82
2022/04/06 01:06:24;;;;;;;0.82;0.80;;;10.80;99.90;;;;;;4887584;29;20121;-82
2022/04/06 01:08:51;;;;;;;1.20;0.98;;;10.80;99.90;;;;;;4889267;29;20520;-81
2022/04/06 01:11:18;;;;;;;1.10;0.90;;;10.80;99.90;;;;;;4903393;29;20040;-80
2022/04/06 01:13:45;;;;;;;1.60;1.10;;;10.80;99.90;;;;;;4887762;29;20047;-81
2022/04/06 01:16:11;;;;;;;2.33;1.02;;;10.80;99.90;;;;;;4893109;29;20084;-80
2022/04/06 01:18:36;;;;;;;2.17;1.20;;;10.80;99.90;;;;;;4898828;29;20021;-80
2022/04/06 01:21:03;;;;;;;2.47;1.30;;;10.80;99.90;;;;;;4888572;29;20035;-81
2022/04/06 01:23:30;;;;;;;1.27;1.17;;;10.80;99.90;;;;;;4891626;29;20070;-79
2022/04/06 01:25:56;;;;;;;1.80;1.40;;;10.70;99.90;;;;;;4891596;29;20060;-80
2022/04/06 01:28:22;;;;;;;1.77;1.20;;;10.70;99.90;;;;;;4902416;29;20041;-80
2022/04/06 01:30:48;;;;;;;1.00;0.90;;;10.80;99.90;;;;;;4891708;29;20044;-82
2022/04/06 01:33:14;;;;;;;1.50;1.27;;;10.70;99.90;;;;;;4892916;29;20041;-81
2022/04/06 01:35:42;;;;;;;1.63;1.33;;;10.70;99.90;;;;;;4893647;29;20040;-80
2022/04/06 01:38:09;;;;;;;1.08;0.98;;;10.70;99.90;;;;;;4893608;29;20040;-82
2022/04/06 01:40:35;;;;;;;1.40;1.30;;;10.80;99.90;;;;;;4894594;29;20104;-81
2022/04/06 01:43:01;;;;;;;3.30;1.33;;;10.90;99.90;;;;;;4889312;29;20077;-81
2022/04/06 01:45:27;;;;;;;4.32;1.35;;;10.90;99.90;;;;;;4887258;29;20081;-81
2022/04/06 01:47:54;;;;;;;1.48;1.20;;;11.00;99.90;;;;;;4889175;29;20058;-81
2022/04/06 01:53:04;;;;;;;1.92;1.35;;;11.10;99.90;;;;;;4887016;29;20529;-83
2022/04/06 01:55:30;;;;;;;2.92;1.88;;;11.20;99.90;;;;;;4887081;29;20037;-81
2022/04/06 01:57:56;;;;;;;1.40;1.30;;;11.20;99.90;;;;;;4891315;29;20129;-81
2022/04/06 02:00:22;;;;;;;2.03;1.45;;;11.20;99.90;;;;;;4890371;29;20029;-81
2022/04/06 02:02:50;;;;;;;1.48;1.30;;;11.20;99.90;;;;;;4899571;29;20025;-79
2022/04/06 02:05:17;;;;;;;1.45;1.10;;;11.20;99.90;;;;;;4893230;29;20022;-80
2022/04/06 02:07:43;;;;;;;2.33;1.55;;;11.30;99.90;;;;;;4893372;29;20085;-79
2022/04/06 02:17:45;;;;;;;1.83;1.30;;;11.30;99.90;;;;;;4893595;29;20032;-82
2022/04/06 02:20:11;;;;;;;1.98;1.50;;;11.30;99.90;;;;;;4893685;29;20037;-81
2022/04/06 02:22:37;;;;;;;1.52;1.20;;;11.30;99.90;;;;;;4894678;29;20051;-82
2022/04/06 02:25:04;;;;;;;1.60;1.30;;;11.30;99.90;;;;;;4893669;29;20478;-80
2022/04/06 02:27:30;;;;;;;1.50;1.15;;;11.30;99.90;;;;;;4894482;29;20077;-82
2022/04/06 02:29:56;;;;;;;2.72;1.52;;;11.30;99.90;;;;;;4891441;29;20033;-82
2022/04/06 02:32:22;;;;;;;1.95;1.50;;;11.40;99.90;;;;;;4888341;29;20051;-82
2022/04/06 02:34:48;;;;;;;2.67;1.75;;;11.40;99.90;;;;;;4886662;29;20037;-84
2022/04/06 02:37:13;;;;;;;4.43;1.33;;;11.40;99.90;;;;;;4886159;29;20029;-82
2022/04/06 02:39:39;;;;;;;1.80;1.27;;;11.40;99.90;;;;;;4900000;29;20033;-83
2022/04/06 02:42:06;;;;;;;2.10;1.27;;;11.40;99.90;;;;;;4887809;29;20029;-82
2022/04/06 02:44:32;;;;;;;1.70;1.23;;;11.40;99.90;;;;;;4901321;29;20068;-82
2022/04/06 02:46:57;;;;;;;0.80;0.80;;;11.40;99.90;;;;;;4897062;29;20025;-81
2022/04/06 02:49:23;;;;;;;1.05;0.90;;;11.40;99.90;;;;;;4894909;29;20029;-81
2022/04/06 02:51:49;;;;;;;1.20;1.10;;;11.30;99.90;;;;;;4893132;29;20025;-82
2022/04/06 02:54:15;;;;;;;1.73;1.02;;;11.40;99.90;;;;;;4891502;29;20033;-81
2022/04/06 02:56:41;;;;;;;2.63;1.00;;;11.40;99.90;;;;;;4889242;29;20032;-80
2022/04/06 02:59:07;;;;;;;0.85;0.80;;;11.40;99.90;;;;;;4886406;29;20047;-82
2022/04/06 03:01:33;;;;;;;1.30;1.00;;;11.30;99.90;;;;;;4900790;29;20065;-81
2022/04/06 03:03:59;;;;;;;1.23;0.65;;;11.30;99.90;;;;;;4890664;29;20031;-80
2022/04/06 03:06:25;;;;;;;2.03;0.70;;;11.30;99.90;;;;;;4893685;29;20021;-81
2022/04/06 03:08:51;;;;;;;1.50;0.98;;;11.30;99.90;;;;;;4886046;29;20684;-83
2022/04/06 03:11:16;;;;;;;1.05;0.90;;;11.30;99.90;;;;;;4889597;29;20029;-81
2022/04/06 03:13:42;;;;;;;1.20;0.90;;;11.40;99.90;;;;;;4891796;29;20041;-81
2022/04/06 03:16:08;;;;;;;1.17;0.73;;;11.40;99.90;;;;;;4890231;29;20029;-82
2022/04/06 03:18:34;;;;;;;1.00;0.90;;;11.40;99.90;;;;;;4886158;29;20060;-82
2022/04/06 03:21:00;;;;;;;1.52;0.82;;;11.40;99.90;;;;;;4902686;29;20056;-81
2022/04/06 03:23:26;;;;;;;1.45;1.10;;;11.40;99.90;;;;;;4893115;29;20039;-81
2022/04/06 03:25:52;;;;;;;1.27;0.93;;;11.40;99.90;;;;;;4900335;29;20025;-80
2022/04/06 03:28:19;;;;;;;2.83;1.10;;;11.40;99.90;;;;;;4898289;29;20061;-81
2022/04/06 03:30:45;;;;;;;2.05;1.50;;;11.40;99.90;;;;;;4893256;29;20024;-81
2022/04/06 03:33:12;;;;;;;6.60;1.45;;;11.40;99.90;;;;;;4902111;29;20065;-81
2022/04/06 03:35:38;;;;;;;2.30;1.85;;;11.40;99.90;;;;;;4894099;29;20093;-82
2022/04/06 03:38:04;;;;;;;2.50;1.88;;;11.40;99.90;;;;;;4890415;29;20045;-80
2022/04/06 03:40:30;;;;;;;2.65;1.80;;;11.30;99.90;;;;;;4887991;29;20040;-80
2022/04/06 03:42:56;;;;;;;2.30;1.88;;;11.20;99.90;;;;;;4887999;29;20115;-81
2022/04/06 03:45:23;;;;;;;2.45;2.05;;;11.20;99.90;;;;;;4887260;29;20060;-79
2022/04/06 03:47:48;;;;;;;2.47;1.95;;;11.20;99.90;;;;;;4887923;29;20025;-80
2022/04/06 03:50:14;;;;;;;3.15;2.25;;;11.10;99.90;;;;;;4887598;29;20508;-82
2022/04/06 03:52:41;;;;;;;2.67;1.90;;;11.10;99.90;;;;;;4887709;29;20090;-80
2022/04/06 03:55:08;;;;;;;2.92;1.80;;;11.10;99.90;;;;;;4890914;29;20028;-81
2022/04/06 03:57:35;;;;;;;6.30;1.85;;;11.10;99.90;;;;;;4878570;29;20136;-81
2022/04/06 04:00:07;;;;;;;3.85;1.85;;;11.00;99.90;;;;;;4896469;29;20033;-81
2022/04/06 04:02:35;;;;;;;2.67;1.55;;;11.00;99.90;;;;;;4893770;29;20029;-82
2022/04/06 04:05:01;;;;;;;3.13;1.70;;;11.00;99.90;;;;;;4894243;29;20108;-81
2022/04/06 04:07:27;;;;;;;2.08;1.67;;;11.00;99.90;;;;;;4875401;29;20041;-81
2022/04/06 04:09:53;;;;;;;2.20;1.60;;;11.00;99.90;;;;;;4900128;29;20113;-82
2022/04/06 04:12:19;;;;;;;3.40;1.50;;;10.90;99.90;;;;;;4889481;29;20028;-81
2022/04/06 04:14:45;;;;;;;1.60;1.40;;;11.00;99.90;;;;;;4889253;29;20025;-82
2022/04/06 04:17:11;;;;;;;2.15;1.40;;;11.00;99.90;;;;;;4888192;29;20061;-82
2022/04/06 04:19:37;;;;;;;2.38;1.75;;;11.00;99.90;;;;;;4942456;23;20048;-83
2022/04/06 04:22:04;;;;;;;2.25;1.48;;;10.90;99.90;;;;;;4920160;29;20067;-85
2022/04/06 04:24:30;;;;;;;2.17;1.73;;;10.90;99.90;;;;;;4917818;29;20020;-83
2022/04/06 04:26:56;;;;;;;3.00;2.03;;;10.80;99.90;;;;;;4919679;29;20031;-84
2022/04/06 04:29:21;;;;;;;2.17;1.60;;;10.80;99.90;;;;;;4918045;29;20497;-85
2022/04/06 04:31:47;;;;;;;3.05;1.73;;;10.80;99.90;;;;;;4920656;29;20037;-84
2022/04/06 04:34:14;;;;;;;1.63;1.40;;;10.80;99.90;;;;;;4922575;29;20084;-84
2022/04/06 04:36:40;;;;;;;2.20;1.92;;;10.80;99.90;;;;;;4917764;29;20048;-83
2022/04/06 04:39:06;;;;;;;3.13;1.70;;;10.80;99.90;;;;;;4921071;29;20036;-84
2022/04/06 04:41:31;;;;;;;2.83;1.67;;;10.90;99.90;;;;;;4915852;29;20063;-83
2022/04/06 04:43:58;;;;;;;5.75;2.10;;;10.90;99.90;;;;;;4913167;29;20032;-85
2022/04/06 04:46:23;;;;;;;2.10;1.58;;;10.90;99.90;;;;;;4911456;29;20040;-85
2022/04/06 04:48:49;;;;;;;2.67;2.10;;;11.00;99.90;;;;;;4909985;29;20029;-84
2022/04/06 04:51:15;;;;;;;3.85;2.05;;;11.00;99.90;;;;;;4911828;29;20101;-84
2022/04/06 04:53:44;;;;;;;3.13;2.20;;;11.00;99.90;;;;;;4910808;29;20040;-83
2022/04/06 04:56:10;;;;;;;2.42;2.00;;;11.00;99.90;;;;;;4909508;29;20040;-85
2022/04/06 04:58:36;;;;;;;5.13;2.22;;;11.00;99.90;;;;;;4909143;29;20036;-84
2022/04/06 05:01:03;;;;;;;5.28;2.40;;;11.10;99.90;;;;;;4909423;29;20037;-84
2022/04/06 05:03:29;;;;;;;5.30;2.15;;;11.00;99.90;;;;;;4919819;29;20044;-84
2022/04/06 05:05:56;;;;;;;2.53;1.80;;;11.10;99.90;;;;;;4915430;29;20032;-85
2022/04/06 05:08:23;;;;;;;3.65;1.98;;;11.10;99.90;;;;;;4915950;29;20032;-85
2022/04/06 05:10:52;;;;;;;4.28;1.85;;;11.10;99.90;;;;;;4916714;29;20028;-84
2022/04/06 05:13:20;;;;;;;3.53;2.22;;;11.20;99.90;;;;;;4921195;29;20033;-84
2022/04/06 05:15:46;;;;;;;3.80;1.77;;;11.20;99.90;;;;;;4918848;29;20028;-84
2022/04/06 05:18:12;;;;;;;3.63;1.80;;;11.20;99.90;;;;;;4911028;29;20032;-85
2022/04/06 05:20:38;;;;;;;4.68;2.08;;;11.30;99.90;;;;;;4916902;29;20036;-87
2022/04/06 05:23:04;;;;;;;4.53;2.15;;;11.30;99.90;;;;;;4937289;29;20016;-85
2022/04/06 05:25:29;;;;;;;4.18;1.90;;;11.30;99.90;;;;;;4932654;29;20047;-85
2022/04/06 05:27:56;;;;;;;2.15;1.75;;;11.40;99.90;;;;;;4913311;29;20035;-85
2022/04/06 05:30:25;;;;;;;3.53;2.00;;;11.50;99.90;;;;;;4932565;29;20099;-87
2022/04/06 05:32:53;;;;;;;4.65;2.50;;;11.50;99.90;;;;;;4933509;29;20064;-86
2022/04/06 05:35:19;;;;;;;8.52;2.92;;;11.60;99.90;;;;;;4928620;29;20396;-88
2022/04/06 05:37:46;;;;;;;4.60;2.22;;;11.60;99.90;;;;;;4929124;29;20043;-88
2022/04/06 05:40:14;;;;;;;5.25;2.08;;;11.60;99.90;;;;;;4931495;29;20047;-87
2022/04/06 05:42:41;;;;;;;3.90;2.22;;;11.70;99.90;;;;;;4933492;29;20056;-86
2022/04/06 05:45:08;;;;;;;9.48;2.40;;;11.70;99.90;;;;;;4915529;29;20084;-87
2022/04/06 05:47:34;;;;;;;7.53;2.38;;;11.80;99.90;;;;;;4921594;29;20024;-87
2022/04/06 05:50:01;;;;;;;6.13;2.58;;;11.90;99.90;;;;;;4915474;29;20043;-85
2022/04/06 05:52:27;;;;;;;9.20;2.55;;;12.00;99.90;;;;;;4907605;29;20031;-86
2022/04/06 05:54:52;;;;;;;14.43;3.13;;;12.00;99.90;;;;;;4906423;29;20036;-86
2022/04/06 05:57:19;;;;;;;2.60;1.90;;;12.20;99.90;;;;;;4914860;29;20029;-86
2022/04/06 05:59:47;;;;;;;3.47;1.90;;;12.20;99.90;;;;;;4916387;29;20580;-86
2022/04/06 06:02:13;;;;;;;3.53;2.63;;;12.20;99.90;;;;;;4909412;29;20041;-86
2022/04/06 06:04:40;;;;;;;2.90;2.17;;;12.30;99.90;;;;;;4906364;29;20088;-87
2022/04/06 06:07:06;;;;;;;4.18;1.83;;;12.40;99.90;;;;;;4908283;29;20033;-86
2022/04/06 06:09:33;;;;;;;4.72;3.00;;;12.50;99.90;;;;;;4907802;29;20040;-87
2022/04/06 06:11:59;;;;;;;4.45;1.85;;;12.50;99.90;;;;;;4905845;29;20088;-86
2022/04/06 06:14:26;;;;;;;3.00;2.10;;;12.60;99.90;;;;;;4907234;29;20115;-85
2022/04/06 06:16:52;;;;;;;8.00;2.63;;;12.70;99.90;;;;;;4907512;29;20033;-86
2022/04/06 06:19:19;;;;;;;6.05;2.50;;;12.80;99.90;;;;;;4912039;29;20036;-86
2022/04/06 06:21:45;;;;;;;4.32;2.13;;;12.80;99.90;;;;;;4913033;29;20499;-87
2022/04/06 06:24:11;;;;;;;7.07;2.47;;;12.90;99.90;;;;;;4904979;29;20033;-86
2022/04/06 06:26:38;;;;;;;4.80;2.10;;;13.10;99.90;;;;;;4907991;29;20107;-86
2022/04/06 06:29:04;;;;;;;5.30;2.25;;;13.20;99.90;;;;;;4907331;29;20032;-87
2022/04/06 06:31:31;;;;;;;7.03;2.03;;;13.20;99.90;;;;;;4907673;29;20039;-86
2022/04/06 06:34:00;;;;;;;3.90;1.90;;;13.20;99.90;;;;;;4898120;29;20051;-89
2022/04/06 06:36:26;;;;;;;20.17;8.55;;;13.30;99.90;;;;;;4916539;29;20045;-87
2022/04/06 06:38:54;;;;;;;7.13;2.15;;;13.30;99.90;;;;;;4909297;29;20051;-87
2022/04/06 06:41:21;;;;;;;6.35;2.95;;;13.40;99.90;;;;;;4916413;29;20076;-87
2022/04/06 06:43:48;;;;;;;2.42;1.40;;;13.40;99.90;;;;;;4916614;29;20092;-86
2022/04/06 06:46:16;;;;;;;2.60;1.48;;;13.40;99.90;;;;;;4922635;29;20032;-86
2022/04/06 06:48:42;;;;;;;2.25;1.20;;;13.40;99.90;;;;;;4919090;29;20032;-86
2022/04/06 06:51:07;;;;;;;2.00;1.05;;;13.60;99.90;;;;;;4925091;29;20056;-87
2022/04/06 06:53:33;;;;;;;6.40;1.85;;;13.60;99.90;;;;;;4915590;29;20043;-84
2022/04/06 06:55:59;;;;;;;4.63;1.60;;;13.60;99.90;;;;;;4911626;29;20042;-86
2022/04/06 06:58:25;;;;;;;3.88;1.52;;;13.60;99.90;;;;;;4915988;29;20036;-87
2022/04/06 07:00:51;;;;;;;5.70;2.03;;;13.70;99.90;;;;;;4914167;29;20060;-85
2022/04/06 07:03:17;;;;;;;1.75;0.90;;;13.90;99.90;;;;;;4920842;29;20045;-87
2022/04/06 07:05:45;;;;;;;0.90;0.77;;;13.90;99.90;;;;;;4922203;29;20021;-87
2022/04/06 07:08:11;;;;;;;12.13;4.82;;;13.80;99.90;;;;;;4908056;29;20060;-87
2022/04/06 07:10:37;;;;;;;4.03;1.98;;;13.80;99.90;;;;;;4923318;29;20036;-88
2022/04/06 07:13:03;;;;;;;3.67;1.85;;;13.70;99.90;;;;;;4940046;29;20032;-88
2022/04/06 07:15:29;;;;;;;2.40;0.98;;;13.70;99.90;;;;;;4915498;29;20028;-86
2022/04/06 07:17:56;;;;;;;3.33;1.13;;;13.70;99.90;;;;;;4935224;29;20036;-87
2022/04/06 07:20:24;;;;;;;4.55;0.90;;;13.80;99.90;;;;;;4938837;29;20035;-87
2022/04/06 07:22:53;;;;;;;3.95;0.90;;;13.90;99.90;;;;;;4942756;29;20044;-87
2022/04/06 07:25:19;;;;;;;3.13;1.10;;;14.00;99.90;;;;;;4933463;29;20035;-85
2022/04/06 07:27:45;;;;;;;1.98;1.20;;;14.20;99.90;;;;;;4915766;29;20040;-87
2022/04/06 07:30:14;;;;;;;1.15;0.77;;;14.30;99.90;;;;;;4916132;29;20031;-87
2022/04/06 07:32:40;;;;;;;1.10;1.00;;;14.40;99.90;;;;;;4896514;29;20509;-86
2022/04/06 07:35:07;;;;;;;2.10;0.80;;;14.40;99.90;;;;;;4914210;29;20103;-88
2022/04/06 07:37:36;;;;;;;2.08;0.95;;;14.50;99.90;;;;;;4912910;29;20055;-86
2022/04/06 07:40:02;;;;;;;2.53;0.90;;;14.70;99.90;;;;;;4912963;29;20027;-87
2022/04/06 07:42:28;;;;;;;0.75;0.60;;;14.60;99.90;;;;;;4912556;29;20065;-88
2022/04/06 07:44:56;;;;;;;1.20;0.75;;;14.60;99.90;;;;;;4911896;29;20032;-86
2022/04/06 07:47:27;;;;;;;1.27;0.63;;;14.70;99.90;;;;;;4912231;29;20033;-89
2022/04/06 07:49:53;;;;;;;2.53;0.70;;;14.80;99.90;;;;;;4910793;29;20045;-86
2022/04/06 07:52:22;;;;;;;2.20;0.85;;;15.00;99.90;;;;;;4910748;29;20442;-86
2022/04/06 07:54:48;;;;;;;2.95;0.70;;;15.20;99.90;;;;;;4912590;29;20064;-86
2022/04/06 07:57:13;;;;;;;1.23;0.68;;;15.40;99.90;;;;;;4912519;29;20020;-86
2022/04/06 07:59:39;;;;;;;3.30;0.70;;;15.40;99.90;;;;;;4911009;29;20040;-85
2022/04/06 08:02:08;;;;;;;2.33;0.90;;;15.30;99.90;;;;;;4912973;29;20036;-85
2022/04/06 08:04:34;;;;;;;2.97;1.70;;;15.30;99.90;;;;;;4911875;29;20038;-86
2022/04/06 08:07:00;;;;;;;1.80;1.15;;;15.20;99.90;;;;;;4915861;29;20025;-84
2022/04/06 08:09:26;;;;;;;2.38;0.88;;;15.20;99.90;;;;;;4918247;29;20036;-85
2022/04/06 08:11:52;;;;;;;1.42;0.65;;;15.30;99.90;;;;;;4909605;29;20047;-84
2022/04/06 08:14:17;;;;;;;0.50;0.50;;;15.30;99.90;;;;;;4910248;29;20029;-84
2022/04/06 08:16:43;;;;;;;1.23;0.70;;;15.50;99.90;;;;;;4910158;29;20033;-84
2022/04/06 08:19:09;;;;;;;2.25;0.70;;;15.50;99.90;;;;;;4892003;29;20390;-86
2022/04/06 08:21:36;;;;;;;1.98;0.63;;;15.70;99.90;;;;;;4908668;29;20024;-86
2022/04/06 08:24:02;;;;;;;5.45;0.80;;;15.90;99.90;;;;;;4908400;29;20033;-84
2022/04/06 08:26:29;;;;;;;6.95;2.88;;;16.00;99.90;;;;;;4910795;29;20025;-87
2022/04/06 08:28:54;;;;;;;1.75;0.85;;;16.10;99.90;;;;;;4910922;29;20048;-86
2022/04/06 08:31:21;;;;;;;0.93;0.75;;;16.20;99.90;;;;;;4909943;29;20032;-85
2022/04/06 08:33:46;;;;;;;1.50;0.80;;;16.40;99.90;;;;;;4932463;29;20032;-84
2022/04/06 08:36:13;;;;;;;3.65;0.80;;;16.70;99.90;;;;;;4938862;29;20039;-83
2022/04/06 08:38:39;;;;;;;2.70;0.90;;;16.90;99.90;;;;;;4937557;29;20044;-84
2022/04/06 08:41:06;;;;;;;1.27;0.80;;;17.00;99.90;;;;;;4932412;29;20028;-83
2022/04/06 08:43:32;;;;;;;1.02;0.40;;;17.30;99.90;;;;;;4935972;29;20056;-81
2022/04/06 08:45:59;;;;;;;1.13;0.47;;;17.20;99.80;;;;;;4933980;29;20015;-82
2022/04/06 08:48:30;;;;;;;2.05;0.50;;;17.10;99.90;;;;;;4932454;29;20032;-85
2022/04/06 08:51:00;;;;;;;3.58;0.60;;;17.20;99.60;;;;;;4932008;29;20020;-81
2022/04/06 08:53:27;;;;;;;0.47;0.40;;;17.10;99.50;;;;;;4930902;29;20023;-84
2022/04/06 08:55:52;;;;;;;1.17;0.70;;;16.90;99.80;;;;;;4924373;29;20028;-82
2022/04/06 08:58:18;;;;;;;1.30;0.63;;;16.90;99.50;;;;;;4921726;29;20025;-82
2022/04/06 09:00:46;;;;;;;2.20;0.73;;;16.90;99.80;;;;;;4899959;29;20040;-85
2022/04/06 09:03:13;;;;;;;0.40;0.40;;;16.90;99.60;;;;;;4914262;29;20111;-85
2022/04/06 09:05:39;;;;;;;9.32;0.60;;;17.10;99.30;;;;;;4911237;29;20029;-86
2022/04/06 09:08:05;;;;;;;1.77;0.65;;;17.70;98.70;;;;;;4910521;29;20032;-83
2022/04/06 09:10:33;;;;;;;1.10;0.70;;;17.60;98.10;;;;;;4908975;29;20534;-85
2022/04/06 09:13:23;;;;;;;7.65;1.17;;;17.50;98.40;;;;;;4909814;29;20052;-84
2022/04/06 09:15:53;;;;;;;2.00;0.70;;;17.60;98.40;;;;;;4912461;29;20033;-83
2022/04/06 09:18:24;;;;;;;2.22;0.70;;;17.60;98.50;;;;;;4911701;29;20037;-83
2022/04/06 09:21:00;;;;;;;5.20;1.10;;;17.50;98.20;;;;;;4911485;29;20029;-84
2022/04/06 09:23:28;;;;;;;2.80;0.90;;;17.50;98.50;;;;;;4909087;29;20029;-83
2022/04/06 09:25:54;;;;;;;3.15;1.67;;;17.30;99.10;;;;;;4915196;29;20029;-83
2022/04/06 09:28:20;;;;;;;6.93;1.25;;;17.30;98.90;;;;;;4912035;29;20481;-87
2022/04/06 09:30:46;;;;;;;1.63;0.80;;;17.50;98.80;;;;;;4908597;29;20036;-84
2022/04/06 09:33:18;;;;;;;5.35;0.80;;;17.50;98.40;;;;;;4911215;29;20029;-83
2022/04/06 09:35:45;;;;;;;3.40;0.77;;;17.70;98.60;;;;;;4914192;29;20048;-86
2022/04/06 09:38:22;;;;;;;1.42;0.82;;;18.10;98.10;;;;;;4919051;29;20101;-84
2022/04/06 09:40:51;;;;;;;0.93;0.77;;;18.50;97.20;;;;;;4920581;29;20052;-83
2022/04/06 09:43:25;;;;;;;1.25;0.70;;;18.30;97.50;;;;;;4924642;29;20085;-83
2022/04/06 09:48:52;;;;;;;1.15;0.75;;;18.70;96.20;;;;;;4928459;29;20044;-82
2022/04/06 09:51:21;;;;;;;2.05;0.63;;;19.80;94.90;;;;;;4929097;29;20044;-83
2022/04/06 09:53:49;;;;;;;4.18;0.75;;;20.60;93.40;;;;;;4928493;29;20024;-81
2022/04/06 09:56:16;;;;;;;1.20;0.70;;;22.20;91.60;;;;;;4927545;29;20028;-83
2022/04/06 09:58:44;;;;;;;0.65;0.60;;;24.00;87.10;;;;;;4921716;29;20033;-86
2022/04/06 10:01:10;;;;;;;2.83;0.70;;;24.40;82.50;;;;;;4925180;29;20100;-83
2022/04/06 10:03:39;;;;;;;3.75;0.80;;;24.50;80.00;;;;;;4920003;29;20096;-85
2022/04/06 10:06:05;;;;;;;1.95;0.82;;;25.30;77.90;;;;;;4919195;29;20037;-83
2022/04/06 10:08:31;;;;;;;1.02;0.65;;;27.50;72.80;;;;;;4926827;29;20036;-85
2022/04/06 10:10:58;;;;;;;7.10;4.78;;;29.70;67.50;;;;;;4928593;29;20092;-82
2022/04/06 10:13:25;;;;;;;1.40;1.02;;;29.30;63.50;;;;;;4918476;29;20032;-84
2022/04/06 10:15:52;;;;;;;2.53;1.08;;;28.00;63.10;;;;;;4916826;29;20041;-81
2022/04/06 10:18:19;;;;;;;0.55;0.40;;;27.30;63.50;;;;;;4913889;29;20048;-85
2022/04/06 10:21:00;;;;;;;0.40;0.40;;;26.70;63.90;;;;;;4912472;29;20065;-85
2022/04/06 10:23:51;;;;;;;1.52;0.50;;;25.70;65.50;;;;;;4909811;29;20036;-85
2022/04/06 10:26:40;;;;;;;0.45;0.45;;;25.80;64.90;;;;;;4912819;29;20040;-87
2022/04/06 10:29:06;;;;;;;1.10;0.50;;;25.70;64.70;;;;;;4929354;23;20099;-88
2022/04/06 10:31:32;;;;;;;0.20;0.20;;;24.80;65.40;;;;;;4912428;29;20090;-87
2022/04/06 10:34:17;;;;;;;2.75;0.50;;;24.10;66.00;;;;;;4912196;29;20024;-85
2022/04/06 10:37:02;;;;;;;0.55;0.40;;;23.70;67.30;;;;;;4896154;29;20044;-86
2022/04/06 10:39:28;;;;;;;1.30;0.60;;;25.70;65.20;;;;;;4895398;29;20043;-88
2022/04/06 10:42:14;;;;;;;1.60;0.25;;;27.80;62.00;;;;;;4899693;29;20097;-86
2022/04/06 10:44:43;;;;;;;0.52;0.40;;;25.60;62.80;;;;;;4910152;29;20037;-89
2022/04/06 10:47:11;;;;;;;0.35;0.28;;;24.10;65.00;;;;;;4911281;29;20105;-88
2022/04/06 10:49:38;;;;;;;0.30;0.30;;;23.70;65.80;;;;;;4897614;29;20037;-88
2022/04/06 10:52:24;;;;;;;0.95;0.50;;;23.30;67.10;;;;;;4896027;29;20013;-88
2022/04/06 10:54:51;;;;;;;4.47;0.47;;;23.00;67.90;;;;;;4896852;29;20029;-90
2022/04/06 10:57:19;;;;;;;1.73;0.50;;;23.90;66.60;;;;;;4898924;29;20044;-89
2022/04/06 11:00:13;;;;;;;1.50;0.47;;;25.50;64.40;;;;;;4912300;29;20032;-88
2022/04/06 11:02:50;;;;;;;0.60;0.47;;;27.70;62.30;;;;;;4900665;29;20072;-87
2022/04/06 11:05:59;;;;;;;11.10;2.30;;;29.40;59.60;;;;;;4896586;29;20029;-89
2022/04/06 11:11:45;;;;;;;2.97;0.60;;;28.90;58.40;;;;;;4899940;29;20070;-85
2022/04/06 11:14:24;;;;;;;1.55;0.45;;;28.50;57.80;;;;;;4894722;29;20452;-88
2022/04/06 11:16:50;;;;;;;0.77;0.38;;;27.90;58.40;;;;;;4897704;29;20062;-90
2022/04/06 11:19:16;;;;;;;0.52;0.50;;;28.10;58.20;;;;;;4914726;29;20029;-87
2022/04/06 11:21:53;;;;;;;2.72;0.57;;;27.60;58.10;;;;;;4897354;29;20110;-89
2022/04/06 11:24:27;;;;;;;0.57;0.45;;;26.00;60.00;;;;;;4914385;29;20032;-88
2022/04/06 11:26:54;;;;;;;0.38;0.30;;;25.10;60.70;;;;;;4900712;29;20045;-89
2022/04/06 11:29:26;;;;;;;1.73;0.57;;;24.50;62.10;;;;;;4915246;29;20068;-88
2022/04/06 11:32:01;;;;;;;2.15;0.45;;;25.40;61.60;;;;;;4914722;29;20041;-87
2022/04/06 11:34:32;;;;;;;0.80;0.45;;;24.70;61.40;;;;;;4913525;29;20045;-87
2022/04/06 11:36:59;;;;;;;7.47;0.65;;;23.80;63.80;;;;;;4901862;29;20053;-88
2022/04/06 11:39:25;;;;;;;4.15;1.05;;;24.60;62.20;;;;;;4915133;29;20107;-87
2022/04/06 11:41:51;;;;;;;2.97;2.22;;;24.60;62.20;;;;;;4916460;29;20093;-86
2022/04/06 11:44:19;;;;;;;0.95;0.30;;;26.50;61.70;;;;;;4919734;29;20009;-86
2022/04/06 11:46:46;;;;;;;2.67;0.32;;;27.90;58.20;;;;;;4919769;29;20100;-88
2022/04/06 11:49:11;;;;;;;0.35;0.35;;;28.20;58.30;;;;;;4900781;29;20040;-88
2022/04/06 11:51:39;;;;;;;0.50;0.40;;;29.80;57.00;;;;;;4913702;29;20021;-87
2022/04/06 11:54:05;;;;;;;3.03;0.50;;;32.40;55.20;;;;;;4918478;29;20017;-87
2022/04/06 11:56:31;;;;;;;0.40;0.40;;;31.80;53.30;;;;;;4917219;29;20057;-87
2022/04/06 11:58:57;;;;;;;0.73;0.50;;;29.10;55.10;;;;;;4904052;29;20080;-88
2022/04/06 12:01:28;;;;;;;0.30;0.30;;;30.20;55.50;;;;;;4916780;29;20043;-85
2022/04/06 12:03:58;;;;;;;2.58;1.08;;;32.30;53.40;;;;;;4916424;29;20070;-87
2022/04/06 12:06:33;;;;;;;0.60;0.50;;;31.80;52.20;;;;;;4899832;29;20033;-88
2022/04/06 12:09:00;;;;;;;0.57;0.45;;;32.10;52.00;;;;;;4899236;29;20038;-86
2022/04/06 12:11:26;;;;;;;1.75;0.60;;;31.60;52.40;;;;;;4890227;29;20025;-88
2022/04/06 12:13:52;;;;;;;1.48;0.50;;;31.10;52.40;;;;;;4916068;29;20036;-88
2022/04/06 12:16:23;;;;;;;0.50;0.40;;;32.00;51.80;;;;;;4900422;29;20017;-88
2022/04/06 12:18:51;;;;;;;0.50;0.50;;;31.90;51.00;;;;;;4911417;29;20037;-88
2022/04/06 12:21:23;;;;;;;5.15;1.15;;;33.30;50.50;;;;;;4912312;29;20046;-88
2022/04/06 12:23:51;;;;;;;4.05;0.77;;;32.90;49.80;;;;;;4913700;29;20044;-86
2022/04/06 12:26:17;;;;;;;1.05;0.70;;;32.50;50.10;;;;;;4912907;29;20037;-87
2022/04/06 12:28:48;;;;;;;1.08;0.82;;;33.30;49.40;;;;;;4912886;29;20037;-87
2022/04/06 12:31:14;;;;;;;1.67;0.90;;;33.50;49.10;;;;;;4912678;29;20032;-87
2022/04/06 12:33:50;;;;;;;1.80;1.00;;;31.90;49.60;;;;;;4911085;29;20429;-87
2022/04/06 12:36:16;;;;;;;2.28;0.90;;;31.50;50.10;;;;;;4918754;29;20029;-88
2022/04/06 12:38:56;;;;;;;6.15;1.13;;;31.50;50.30;;;;;;4899274;29;20041;-87
2022/04/06 12:41:25;;;;;;;1.35;0.80;;;31.50;49.90;;;;;;4916625;29;20041;-87
2022/04/06 12:43:51;;;;;;;1.33;0.77;;;31.20;50.00;;;;;;4903244;29;20025;-87
2022/04/06 12:46:36;;;;;;;1.42;0.70;;;32.20;49.30;;;;;;4918365;29;20013;-87
2022/04/06 12:49:37;;;;;;;3.72;0.82;;;31.30;49.50;;;;;;4901463;29;20097;-88
2022/04/06 12:52:07;;;;;;;0.98;0.70;;;30.10;50.90;;;;;;4894605;29;20092;-87
2022/04/06 12:54:35;;;;;;;1.05;0.90;;;31.10;50.30;;;;;;4900090;29;20029;-87
2022/04/06 12:57:15;;;;;;;2.30;1.00;;;31.70;49.20;;;;;;4914654;29;20022;-88
2022/04/06 12:59:45;;;;;;;1.80;1.10;;;31.20;50.00;;;;;;4898762;29;20033;-86
2022/04/06 13:02:31;;;;;;;4.50;1.45;;;31.20;49.80;;;;;;4913697;29;20025;-88
2022/04/06 13:05:09;;;;;;;2.10;1.50;;;30.50;50.20;;;;;;4897881;29;20066;-88